sensor_id;sensor_type;location;lat;lon;timestamp;P1;durP1;ratioP1;P2;durP2;ratioP2
55776;SDS011;54079;44.540;18.784;2023-11-21T00:00:18;4.00;;;2.67;;
55776;SDS011;54079;44.540;18.784;2023-11-21T00:02:45;2.67;;;1.73;;
55776;SDS011;54079;44.540;18.784;2023-11-21T00:05:11;2.28;;;1.45;;
55776;SDS011;54079;44.540;18.784;2023-11-21T00:07:42;4.47;;;2.63;;
55776;SDS011;54079;44.540;18.784;2023-11-21T00:10:09;2.83;;;1.63;;
55776;SDS011;54079;44.540;18.784;2023-11-21T00:12:36;2.40;;;1.95;;
55776;SDS011;54079;44.540;18.784;2023-11-21T00:15:03;2.83;;;1.23;;
55776;SDS011;54079;44.540;18.784;2023-11-21T00:17:34;3.13;;;2.17;;
55776;SDS011;54079;44.540;18.784;2023-11-21T00:20:00;3.00;;;1.90;;
55776;SDS011;54079;44.540;18.784;2023-11-21T00:22:26;2.15;;;1.55;;
55776;SDS011;54079;44.540;18.784;2023-11-21T00:24:52;1.33;;;0.73;;
55776;SDS011;54079;44.540;18.784;2023-11-21T00:27:18;2.15;;;1.02;;
55776;SDS011;54079;44.540;18.784;2023-11-21T00:29:44;1.08;;;0.70;;
55776;SDS011;54079;44.540;18.784;2023-11-21T00:32:10;1.65;;;1.08;;
55776;SDS011;54079;44.540;18.784;2023-11-21T00:34:36;2.45;;;1.55;;
55776;SDS011;54079;44.540;18.784;2023-11-21T00:37:01;2.97;;;2.05;;
55776;SDS011;54079;44.540;18.784;2023-11-21T00:39:28;1.67;;;0.90;;
55776;SDS011;54079;44.540;18.784;2023-11-21T00:41:54;1.88;;;1.38;;
55776;SDS011;54079;44.540;18.784;2023-11-21T00:44:20;1.40;;;1.10;;
55776;SDS011;54079;44.540;18.784;2023-11-21T00:46:46;2.40;;;1.63;;
55776;SDS011;54079;44.540;18.784;2023-11-21T00:49:12;1.90;;;1.35;;
55776;SDS011;54079;44.540;18.784;2023-11-21T00:51:38;1.55;;;1.38;;
55776;SDS011;54079;44.540;18.784;2023-11-21T00:54:04;6.80;;;2.22;;
55776;SDS011;54079;44.540;18.784;2023-11-21T00:56:31;2.90;;;1.90;;
55776;SDS011;54079;44.540;18.784;2023-11-21T00:58:59;2.05;;;1.40;;
55776;SDS011;54079;44.540;18.784;2023-11-21T01:01:25;1.40;;;1.00;;
55776;SDS011;54079;44.540;18.784;2023-11-21T01:03:51;0.93;;;0.65;;
55776;SDS011;54079;44.540;18.784;2023-11-21T01:06:17;0.95;;;0.77;;
55776;SDS011;54079;44.540;18.784;2023-11-21T01:08:44;3.30;;;1.85;;
55776;SDS011;54079;44.540;18.784;2023-11-21T01:11:11;1.83;;;1.50;;
55776;SDS011;54079;44.540;18.784;2023-11-21T01:13:38;0.85;;;0.47;;
55776;SDS011;54079;44.540;18.784;2023-11-21T01:16:05;1.58;;;0.85;;
55776;SDS011;54079;44.540;18.784;2023-11-21T01:18:31;1.35;;;1.00;;
55776;SDS011;54079;44.540;18.784;2023-11-21T01:20:58;1.25;;;0.60;;
55776;SDS011;54079;44.540;18.784;2023-11-21T01:23:25;1.38;;;1.05;;
55776;SDS011;54079;44.540;18.784;2023-11-21T01:25:52;2.92;;;1.70;;
55776;SDS011;54079;44.540;18.784;2023-11-21T01:28:20;1.45;;;0.82;;
55776;SDS011;54079;44.540;18.784;2023-11-21T01:30:46;2.40;;;1.20;;
55776;SDS011;54079;44.540;18.784;2023-11-21T01:33:12;2.17;;;1.60;;
55776;SDS011;54079;44.540;18.784;2023-11-21T01:35:38;2.60;;;1.20;;
55776;SDS011;54079;44.540;18.784;2023-11-21T01:38:04;1.00;;;0.50;;
55776;SDS011;54079;44.540;18.784;2023-11-21T01:40:33;1.23;;;0.73;;
55776;SDS011;54079;44.540;18.784;2023-11-21T01:42:59;3.50;;;1.20;;
55776;SDS011;54079;44.540;18.784;2023-11-21T01:45:28;1.58;;;1.15;;
55776;SDS011;54079;44.540;18.784;2023-11-21T01:47:56;1.05;;;0.75;;
55776;SDS011;54079;44.540;18.784;2023-11-21T01:50:23;1.25;;;0.80;;
55776;SDS011;54079;44.540;18.784;2023-11-21T01:52:50;0.80;;;0.70;;
55776;SDS011;54079;44.540;18.784;2023-11-21T01:55:17;4.32;;;1.88;;
55776;SDS011;54079;44.540;18.784;2023-11-21T01:57:44;2.25;;;1.67;;
55776;SDS011;54079;44.540;18.784;2023-11-21T02:00:11;1.35;;;0.95;;
55776;SDS011;54079;44.540;18.784;2023-11-21T02:02:44;1.90;;;1.05;;
55776;SDS011;54079;44.540;18.784;2023-11-21T02:05:11;1.10;;;0.57;;
55776;SDS011;54079;44.540;18.784;2023-11-21T02:07:46;1.85;;;1.20;;
55776;SDS011;54079;44.540;18.784;2023-11-21T02:10:13;1.58;;;1.15;;
55776;SDS011;54079;44.540;18.784;2023-11-21T02:12:40;2.22;;;1.30;;
55776;SDS011;54079;44.540;18.784;2023-11-21T02:15:08;2.00;;;1.40;;
55776;SDS011;54079;44.540;18.784;2023-11-21T02:17:41;1.30;;;1.10;;
55776;SDS011;54079;44.540;18.784;2023-11-21T02:20:12;1.38;;;1.27;;
55776;SDS011;54079;44.540;18.784;2023-11-21T02:22:43;1.52;;;0.75;;
55776;SDS011;54079;44.540;18.784;2023-11-21T02:25:13;1.50;;;0.77;;
55776;SDS011;54079;44.540;18.784;2023-11-21T02:27:39;1.38;;;0.70;;
55776;SDS011;54079;44.540;18.784;2023-11-21T02:30:06;1.40;;;1.02;;
55776;SDS011;54079;44.540;18.784;2023-11-21T02:32:37;1.20;;;0.70;;
55776;SDS011;54079;44.540;18.784;2023-11-21T02:35:05;0.95;;;0.70;;
55776;SDS011;54079;44.540;18.784;2023-11-21T02:37:33;1.95;;;1.27;;
55776;SDS011;54079;44.540;18.784;2023-11-21T02:40:00;1.48;;;0.93;;
55776;SDS011;54079;44.540;18.784;2023-11-21T02:42:29;1.40;;;0.70;;
55776;SDS011;54079;44.540;18.784;2023-11-21T02:44:55;1.60;;;1.30;;
55776;SDS011;54079;44.540;18.784;2023-11-21T02:47:22;1.85;;;1.20;;
55776;SDS011;54079;44.540;18.784;2023-11-21T02:49:48;1.30;;;0.60;;
55776;SDS011;54079;44.540;18.784;2023-11-21T02:52:15;3.55;;;1.58;;
55776;SDS011;54079;44.540;18.784;2023-11-21T02:54:41;1.88;;;1.15;;
55776;SDS011;54079;44.540;18.784;2023-11-21T02:57:07;1.73;;;1.35;;
55776;SDS011;54079;44.540;18.784;2023-11-21T02:59:33;2.22;;;1.33;;
55776;SDS011;54079;44.540;18.784;2023-11-21T03:02:00;1.92;;;1.60;;
55776;SDS011;54079;44.540;18.784;2023-11-21T03:04:26;2.72;;;2.17;;
55776;SDS011;54079;44.540;18.784;2023-11-21T03:06:52;1.65;;;1.08;;
55776;SDS011;54079;44.540;18.784;2023-11-21T03:09:18;0.82;;;0.65;;
55776;SDS011;54079;44.540;18.784;2023-11-21T03:11:44;0.75;;;0.70;;
55776;SDS011;54079;44.540;18.784;2023-11-21T03:14:10;2.28;;;2.03;;
55776;SDS011;54079;44.540;18.784;2023-11-21T03:16:36;3.05;;;2.13;;
55776;SDS011;54079;44.540;18.784;2023-11-21T03:19:03;3.50;;;2.38;;
55776;SDS011;54079;44.540;18.784;2023-11-21T03:21:30;6.07;;;3.20;;
55776;SDS011;54079;44.540;18.784;2023-11-21T03:23:56;3.53;;;2.90;;
55776;SDS011;54079;44.540;18.784;2023-11-21T03:26:22;4.72;;;2.38;;
55776;SDS011;54079;44.540;18.784;2023-11-21T03:28:48;2.90;;;2.08;;
55776;SDS011;54079;44.540;18.784;2023-11-21T03:31:15;3.83;;;2.60;;
55776;SDS011;54079;44.540;18.784;2023-11-21T03:33:42;7.25;;;4.63;;
55776;SDS011;54079;44.540;18.784;2023-11-21T03:36:08;4.88;;;2.88;;
55776;SDS011;54079;44.540;18.784;2023-11-21T03:38:34;5.30;;;2.72;;
55776;SDS011;54079;44.540;18.784;2023-11-21T03:41:01;3.50;;;2.67;;
55776;SDS011;54079;44.540;18.784;2023-11-21T03:43:27;2.88;;;1.92;;
55776;SDS011;54079;44.540;18.784;2023-11-21T03:45:53;1.75;;;1.33;;
55776;SDS011;54079;44.540;18.784;2023-11-21T03:48:19;5.32;;;2.80;;
55776;SDS011;54079;44.540;18.784;2023-11-21T03:50:45;5.72;;;3.28;;
55776;SDS011;54079;44.540;18.784;2023-11-21T03:53:12;6.00;;;3.83;;
55776;SDS011;54079;44.540;18.784;2023-11-21T03:55:38;10.55;;;7.07;;
55776;SDS011;54079;44.540;18.784;2023-11-21T03:58:04;11.00;;;6.43;;
55776;SDS011;54079;44.540;18.784;2023-11-21T04:00:30;4.45;;;2.97;;
55776;SDS011;54079;44.540;18.784;2023-11-21T04:02:56;4.05;;;2.03;;
55776;SDS011;54079;44.540;18.784;2023-11-21T04:05:22;5.32;;;3.63;;
55776;SDS011;54079;44.540;18.784;2023-11-21T04:07:49;8.77;;;5.43;;
55776;SDS011;54079;44.540;18.784;2023-11-21T04:10:16;8.40;;;6.30;;
55776;SDS011;54079;44.540;18.784;2023-11-21T04:12:42;3.03;;;1.50;;
55776;SDS011;54079;44.540;18.784;2023-11-21T04:15:08;3.28;;;1.00;;
55776;SDS011;54079;44.540;18.784;2023-11-21T04:17:35;6.93;;;3.72;;
55776;SDS011;54079;44.540;18.784;2023-11-21T04:20:02;1.33;;;0.85;;
55776;SDS011;54079;44.540;18.784;2023-11-21T04:24:59;4.43;;;2.25;;
55776;SDS011;54079;44.540;18.784;2023-11-21T04:27:25;5.20;;;3.55;;
55776;SDS011;54079;44.540;18.784;2023-11-21T04:29:51;3.92;;;2.60;;
55776;SDS011;54079;44.540;18.784;2023-11-21T04:32:17;3.83;;;2.75;;
55776;SDS011;54079;44.540;18.784;2023-11-21T04:34:42;3.92;;;2.58;;
55776;SDS011;54079;44.540;18.784;2023-11-21T04:37:08;2.22;;;1.77;;
55776;SDS011;54079;44.540;18.784;2023-11-21T04:39:35;4.20;;;3.13;;
55776;SDS011;54079;44.540;18.784;2023-11-21T04:42:01;1.05;;;0.95;;
55776;SDS011;54079;44.540;18.784;2023-11-21T04:44:27;5.57;;;3.63;;
55776;SDS011;54079;44.540;18.784;2023-11-21T04:46:53;8.73;;;5.95;;
55776;SDS011;54079;44.540;18.784;2023-11-21T04:49:19;7.50;;;5.63;;
55776;SDS011;54079;44.540;18.784;2023-11-21T04:51:45;2.92;;;1.88;;
55776;SDS011;54079;44.540;18.784;2023-11-21T04:54:11;3.28;;;1.65;;
55776;SDS011;54079;44.540;18.784;2023-11-21T04:56:37;5.32;;;3.67;;
55776;SDS011;54079;44.540;18.784;2023-11-21T04:59:03;5.28;;;3.00;;
55776;SDS011;54079;44.540;18.784;2023-11-21T05:01:29;2.22;;;1.13;;
55776;SDS011;54079;44.540;18.784;2023-11-21T05:03:55;7.57;;;4.45;;
55776;SDS011;54079;44.540;18.784;2023-11-21T05:06:22;5.20;;;3.25;;
55776;SDS011;54079;44.540;18.784;2023-11-21T05:08:49;9.95;;;6.30;;
55776;SDS011;54079;44.540;18.784;2023-11-21T05:11:24;5.40;;;3.35;;
55776;SDS011;54079;44.540;18.784;2023-11-21T05:13:51;6.63;;;4.82;;
55776;SDS011;54079;44.540;18.784;2023-11-21T05:16:18;5.45;;;3.60;;
55776;SDS011;54079;44.540;18.784;2023-11-21T05:18:45;3.08;;;1.55;;
55776;SDS011;54079;44.540;18.784;2023-11-21T05:21:11;4.55;;;2.45;;
55776;SDS011;54079;44.540;18.784;2023-11-21T05:23:37;3.85;;;2.47;;
55776;SDS011;54079;44.540;18.784;2023-11-21T05:26:03;6.03;;;3.97;;
55776;SDS011;54079;44.540;18.784;2023-11-21T05:28:29;6.07;;;3.72;;
55776;SDS011;54079;44.540;18.784;2023-11-21T05:30:55;2.85;;;1.98;;
55776;SDS011;54079;44.540;18.784;2023-11-21T05:33:21;4.90;;;3.33;;
55776;SDS011;54079;44.540;18.784;2023-11-21T05:35:47;5.78;;;3.40;;
55776;SDS011;54079;44.540;18.784;2023-11-21T05:38:15;4.20;;;2.55;;
55776;SDS011;54079;44.540;18.784;2023-11-21T05:40:41;4.22;;;3.00;;
55776;SDS011;54079;44.540;18.784;2023-11-21T05:43:09;5.85;;;3.88;;
55776;SDS011;54079;44.540;18.784;2023-11-21T05:45:35;2.42;;;1.77;;
55776;SDS011;54079;44.540;18.784;2023-11-21T05:48:01;1.90;;;1.05;;
55776;SDS011;54079;44.540;18.784;2023-11-21T05:50:28;4.97;;;2.80;;
55776;SDS011;54079;44.540;18.784;2023-11-21T05:52:56;4.30;;;2.20;;
55776;SDS011;54079;44.540;18.784;2023-11-21T05:55:25;11.05;;;8.10;;
55776;SDS011;54079;44.540;18.784;2023-11-21T05:57:51;6.53;;;4.93;;
55776;SDS011;54079;44.540;18.784;2023-11-21T06:00:17;2.08;;;1.58;;
55776;SDS011;54079;44.540;18.784;2023-11-21T06:02:50;1.67;;;0.82;;
55776;SDS011;54079;44.540;18.784;2023-11-21T06:05:18;3.58;;;2.33;;
55776;SDS011;54079;44.540;18.784;2023-11-21T06:07:45;6.07;;;4.63;;
55776;SDS011;54079;44.540;18.784;2023-11-21T06:10:11;9.93;;;6.57;;
55776;SDS011;54079;44.540;18.784;2023-11-21T06:12:43;4.63;;;2.58;;
55776;SDS011;54079;44.540;18.784;2023-11-21T06:15:09;3.88;;;2.60;;
55776;SDS011;54079;44.540;18.784;2023-11-21T06:17:39;2.08;;;1.63;;
55776;SDS011;54079;44.540;18.784;2023-11-21T06:20:06;2.72;;;1.30;;
55776;SDS011;54079;44.540;18.784;2023-11-21T06:22:39;3.97;;;2.50;;
55776;SDS011;54079;44.540;18.784;2023-11-21T06:25:06;3.63;;;1.42;;
55776;SDS011;54079;44.540;18.784;2023-11-21T06:27:43;3.78;;;3.13;;
55776;SDS011;54079;44.540;18.784;2023-11-21T06:30:13;4.25;;;2.60;;
55776;SDS011;54079;44.540;18.784;2023-11-21T06:32:40;5.25;;;3.78;;
55776;SDS011;54079;44.540;18.784;2023-11-21T06:35:07;5.72;;;4.28;;
55776;SDS011;54079;44.540;18.784;2023-11-21T06:37:35;6.35;;;4.18;;
55776;SDS011;54079;44.540;18.784;2023-11-21T06:40:01;9.25;;;6.57;;
55776;SDS011;54079;44.540;18.784;2023-11-21T06:42:29;2.13;;;1.90;;
55776;SDS011;54079;44.540;18.784;2023-11-21T06:44:55;1.45;;;0.90;;
55776;SDS011;54079;44.540;18.784;2023-11-21T06:47:23;1.23;;;0.80;;
55776;SDS011;54079;44.540;18.784;2023-11-21T06:49:53;2.10;;;1.52;;
55776;SDS011;54079;44.540;18.784;2023-11-21T06:52:19;6.72;;;5.13;;
55776;SDS011;54079;44.540;18.784;2023-11-21T06:54:47;9.55;;;5.75;;
55776;SDS011;54079;44.540;18.784;2023-11-21T06:57:16;7.53;;;6.00;;
55776;SDS011;54079;44.540;18.784;2023-11-21T06:59:42;14.43;;;9.43;;
55776;SDS011;54079;44.540;18.784;2023-11-21T07:02:09;10.68;;;7.57;;
55776;SDS011;54079;44.540;18.784;2023-11-21T07:04:35;9.85;;;7.63;;
55776;SDS011;54079;44.540;18.784;2023-11-21T07:07:05;10.45;;;6.75;;
55776;SDS011;54079;44.540;18.784;2023-11-21T07:09:32;4.80;;;3.35;;
55776;SDS011;54079;44.540;18.784;2023-11-21T07:11:58;12.50;;;8.50;;
55776;SDS011;54079;44.540;18.784;2023-11-21T07:14:24;10.27;;;7.63;;
55776;SDS011;54079;44.540;18.784;2023-11-21T07:16:50;7.20;;;5.05;;
55776;SDS011;54079;44.540;18.784;2023-11-21T07:19:17;7.35;;;5.55;;
55776;SDS011;54079;44.540;18.784;2023-11-21T07:21:45;9.95;;;7.25;;
55776;SDS011;54079;44.540;18.784;2023-11-21T07:24:10;14.45;;;10.35;;
55776;SDS011;54079;44.540;18.784;2023-11-21T07:26:36;12.35;;;8.52;;
55776;SDS011;54079;44.540;18.784;2023-11-21T07:29:02;11.18;;;7.90;;
55776;SDS011;54079;44.540;18.784;2023-11-21T07:31:29;10.32;;;7.38;;
55776;SDS011;54079;44.540;18.784;2023-11-21T07:33:56;12.80;;;9.50;;
55776;SDS011;54079;44.540;18.784;2023-11-21T07:36:23;18.35;;;12.50;;
55776;SDS011;54079;44.540;18.784;2023-11-21T07:38:49;11.30;;;8.32;;
55776;SDS011;54079;44.540;18.784;2023-11-21T07:41:15;9.25;;;6.80;;
55776;SDS011;54079;44.540;18.784;2023-11-21T07:43:42;10.13;;;6.28;;
55776;SDS011;54079;44.540;18.784;2023-11-21T07:46:12;12.07;;;9.23;;
55776;SDS011;54079;44.540;18.784;2023-11-21T07:48:41;13.25;;;9.45;;
55776;SDS011;54079;44.540;18.784;2023-11-21T07:51:07;9.10;;;7.20;;
55776;SDS011;54079;44.540;18.784;2023-11-21T07:53:35;11.15;;;9.48;;
55776;SDS011;54079;44.540;18.784;2023-11-21T07:56:04;10.23;;;8.40;;
55776;SDS011;54079;44.540;18.784;2023-11-21T07:58:32;3.90;;;3.05;;
55776;SDS011;54079;44.540;18.784;2023-11-21T08:00:59;4.50;;;3.45;;
55776;SDS011;54079;44.540;18.784;2023-11-21T08:03:25;4.85;;;3.78;;
55776;SDS011;54079;44.540;18.784;2023-11-21T08:05:52;3.58;;;3.20;;
55776;SDS011;54079;44.540;18.784;2023-11-21T08:08:18;5.15;;;3.55;;
55776;SDS011;54079;44.540;18.784;2023-11-21T08:10:47;5.15;;;3.95;;
55776;SDS011;54079;44.540;18.784;2023-11-21T08:13:28;5.50;;;4.50;;
55776;SDS011;54079;44.540;18.784;2023-11-21T08:15:56;4.75;;;4.07;;
55776;SDS011;54079;44.540;18.784;2023-11-21T08:18:30;4.93;;;3.45;;
55776;SDS011;54079;44.540;18.784;2023-11-21T08:20:56;4.53;;;3.17;;
55776;SDS011;54079;44.540;18.784;2023-11-21T08:23:22;5.30;;;4.72;;
55776;SDS011;54079;44.540;18.784;2023-11-21T08:25:50;8.05;;;5.65;;
55776;SDS011;54079;44.540;18.784;2023-11-21T08:28:20;1.92;;;1.50;;
55776;SDS011;54079;44.540;18.784;2023-11-21T08:30:51;3.40;;;2.45;;
55776;SDS011;54079;44.540;18.784;2023-11-21T08:33:18;7.60;;;5.88;;
55776;SDS011;54079;44.540;18.784;2023-11-21T08:35:44;6.32;;;5.13;;
55776;SDS011;54079;44.540;18.784;2023-11-21T08:38:11;4.30;;;3.40;;
55776;SDS011;54079;44.540;18.784;2023-11-21T08:40:37;7.18;;;5.15;;
55776;SDS011;54079;44.540;18.784;2023-11-21T08:43:04;7.95;;;5.93;;
55776;SDS011;54079;44.540;18.784;2023-11-21T08:45:30;8.63;;;7.13;;
55776;SDS011;54079;44.540;18.784;2023-11-21T08:47:59;11.60;;;8.02;;
55776;SDS011;54079;44.540;18.784;2023-11-21T08:50:28;7.00;;;5.60;;
55776;SDS011;54079;44.540;18.784;2023-11-21T08:52:54;6.38;;;5.28;;
55776;SDS011;54079;44.540;18.784;2023-11-21T08:55:20;5.18;;;3.33;;
55776;SDS011;54079;44.540;18.784;2023-11-21T08:57:47;11.23;;;7.88;;
55776;SDS011;54079;44.540;18.784;2023-11-21T09:00:13;12.15;;;9.57;;
55776;SDS011;54079;44.540;18.784;2023-11-21T09:02:42;11.20;;;7.47;;
55776;SDS011;54079;44.540;18.784;2023-11-21T09:05:12;9.55;;;7.45;;
55776;SDS011;54079;44.540;18.784;2023-11-21T09:07:39;5.68;;;4.90;;
55776;SDS011;54079;44.540;18.784;2023-11-21T09:10:06;9.27;;;6.78;;
55776;SDS011;54079;44.540;18.784;2023-11-21T09:12:34;7.18;;;5.57;;
55776;SDS011;54079;44.540;18.784;2023-11-21T09:15:03;8.52;;;6.45;;
55776;SDS011;54079;44.540;18.784;2023-11-21T09:17:32;6.13;;;5.25;;
55776;SDS011;54079;44.540;18.784;2023-11-21T09:20:01;8.77;;;6.15;;
55776;SDS011;54079;44.540;18.784;2023-11-21T09:22:31;2.55;;;1.67;;
55776;SDS011;54079;44.540;18.784;2023-11-21T09:24:57;7.85;;;3.60;;
55776;SDS011;54079;44.540;18.784;2023-11-21T09:27:23;4.78;;;3.75;;
55776;SDS011;54079;44.540;18.784;2023-11-21T09:29:50;7.50;;;4.85;;
55776;SDS011;54079;44.540;18.784;2023-11-21T09:32:18;5.45;;;3.17;;
55776;SDS011;54079;44.540;18.784;2023-11-21T09:34:44;4.70;;;3.63;;
55776;SDS011;54079;44.540;18.784;2023-11-21T09:37:10;7.13;;;5.30;;
55776;SDS011;54079;44.540;18.784;2023-11-21T09:39:36;8.30;;;7.03;;
55776;SDS011;54079;44.540;18.784;2023-11-21T09:42:04;10.82;;;7.85;;
55776;SDS011;54079;44.540;18.784;2023-11-21T09:44:35;11.73;;;9.80;;
55776;SDS011;54079;44.540;18.784;2023-11-21T09:47:07;14.20;;;12.27;;
55776;SDS011;54079;44.540;18.784;2023-11-21T09:49:35;23.17;;;18.17;;
55776;SDS011;54079;44.540;18.784;2023-11-21T09:52:03;25.45;;;20.33;;
55776;SDS011;54079;44.540;18.784;2023-11-21T09:54:31;22.77;;;18.50;;
55776;SDS011;54079;44.540;18.784;2023-11-21T09:56:59;26.10;;;21.00;;
55776;SDS011;54079;44.540;18.784;2023-11-21T09:59:25;22.02;;;18.38;;
55776;SDS011;54079;44.540;18.784;2023-11-21T10:01:59;20.77;;;18.35;;
55776;SDS011;54079;44.540;18.784;2023-11-21T10:04:25;24.48;;;18.95;;
55776;SDS011;54079;44.540;18.784;2023-11-21T10:06:53;20.70;;;17.02;;
55776;SDS011;54079;44.540;18.784;2023-11-21T10:09:21;19.70;;;17.48;;
55776;SDS011;54079;44.540;18.784;2023-11-21T10:11:48;21.15;;;18.50;;
55776;SDS011;54079;44.540;18.784;2023-11-21T10:14:17;23.10;;;16.77;;
55776;SDS011;54079;44.540;18.784;2023-11-21T10:16:47;17.90;;;14.70;;
55776;SDS011;54079;44.540;18.784;2023-11-21T10:19:14;9.30;;;8.32;;
55776;SDS011;54079;44.540;18.784;2023-11-21T10:21:42;5.55;;;5.03;;
55776;SDS011;54079;44.540;18.784;2023-11-21T10:24:08;5.00;;;4.50;;
55776;SDS011;54079;44.540;18.784;2023-11-21T10:26:34;6.93;;;5.78;;
55776;SDS011;54079;44.540;18.784;2023-11-21T10:29:01;5.68;;;4.97;;
55776;SDS011;54079;44.540;18.784;2023-11-21T10:31:31;5.50;;;4.90;;
55776;SDS011;54079;44.540;18.784;2023-11-21T10:34:16;12.43;;;8.77;;
55776;SDS011;54079;44.540;18.784;2023-11-21T10:36:43;10.30;;;8.48;;
55776;SDS011;54079;44.540;18.784;2023-11-21T10:39:13;10.95;;;9.30;;
55776;SDS011;54079;44.540;18.784;2023-11-21T10:41:43;8.80;;;6.85;;
55776;SDS011;54079;44.540;18.784;2023-11-21T10:44:11;8.63;;;6.97;;
55776;SDS011;54079;44.540;18.784;2023-11-21T10:46:39;10.85;;;9.30;;
55776;SDS011;54079;44.540;18.784;2023-11-21T10:49:08;6.22;;;5.55;;
55776;SDS011;54079;44.540;18.784;2023-11-21T10:51:34;8.85;;;6.20;;
55776;SDS011;54079;44.540;18.784;2023-11-21T10:54:00;8.43;;;6.03;;
55776;SDS011;54079;44.540;18.784;2023-11-21T10:56:26;7.40;;;6.55;;
55776;SDS011;54079;44.540;18.784;2023-11-21T10:58:55;4.85;;;4.15;;
55776;SDS011;54079;44.540;18.784;2023-11-21T11:01:22;8.10;;;5.78;;
55776;SDS011;54079;44.540;18.784;2023-11-21T11:03:54;8.55;;;6.95;;
55776;SDS011;54079;44.540;18.784;2023-11-21T11:06:21;4.97;;;4.28;;
55776;SDS011;54079;44.540;18.784;2023-11-21T11:08:51;7.38;;;5.43;;
55776;SDS011;54079;44.540;18.784;2023-11-21T11:11:17;9.15;;;7.68;;
55776;SDS011;54079;44.540;18.784;2023-11-21T11:13:43;10.80;;;8.68;;
55776;SDS011;54079;44.540;18.784;2023-11-21T11:16:11;11.05;;;9.38;;
55776;SDS011;54079;44.540;18.784;2023-11-21T11:18:42;8.48;;;7.28;;
55776;SDS011;54079;44.540;18.784;2023-11-21T11:22:12;8.18;;;7.30;;
55776;SDS011;54079;44.540;18.784;2023-11-21T11:30:00;9.05;;;7.43;;
55776;SDS011;54079;44.540;18.784;2023-11-21T11:35:19;7.82;;;7.00;;
55776;SDS011;54079;44.540;18.784;2023-11-21T11:37:56;10.70;;;8.90;;
55776;SDS011;54079;44.540;18.784;2023-11-21T11:40:25;8.10;;;7.22;;
55776;SDS011;54079;44.540;18.784;2023-11-21T11:43:03;8.65;;;7.07;;
55776;SDS011;54079;44.540;18.784;2023-11-21T11:45:32;7.10;;;6.40;;
55776;SDS011;54079;44.540;18.784;2023-11-21T11:48:00;5.43;;;4.55;;
55776;SDS011;54079;44.540;18.784;2023-11-21T11:50:28;5.57;;;4.97;;
55776;SDS011;54079;44.540;18.784;2023-11-21T11:52:55;7.68;;;6.18;;
55776;SDS011;54079;44.540;18.784;2023-11-21T11:55:37;6.15;;;5.13;;
55776;SDS011;54079;44.540;18.784;2023-11-21T11:58:04;8.30;;;6.00;;
55776;SDS011;54079;44.540;18.784;2023-11-21T12:03:00;7.10;;;5.82;;
55776;SDS011;54079;44.540;18.784;2023-11-21T12:05:34;6.20;;;5.03;;
55776;SDS011;54079;44.540;18.784;2023-11-21T12:08:04;9.40;;;7.07;;
55776;SDS011;54079;44.540;18.784;2023-11-21T12:10:32;7.55;;;5.60;;
55776;SDS011;54079;44.540;18.784;2023-11-21T12:13:01;5.70;;;5.00;;
55776;SDS011;54079;44.540;18.784;2023-11-21T12:15:32;5.32;;;4.45;;
55776;SDS011;54079;44.540;18.784;2023-11-21T12:17:58;5.55;;;4.53;;
55776;SDS011;54079;44.540;18.784;2023-11-21T12:20:25;8.18;;;5.88;;
55776;SDS011;54079;44.540;18.784;2023-11-21T12:22:56;7.85;;;4.72;;
55776;SDS011;54079;44.540;18.784;2023-11-21T12:25:26;3.42;;;2.53;;
55776;SDS011;54079;44.540;18.784;2023-11-21T12:27:54;6.60;;;5.80;;
55776;SDS011;54079;44.540;18.784;2023-11-21T12:30:23;4.22;;;3.83;;
55776;SDS011;54079;44.540;18.784;2023-11-21T12:32:53;9.27;;;6.95;;
55776;SDS011;54079;44.540;18.784;2023-11-21T12:35:27;7.07;;;5.88;;
55776;SDS011;54079;44.540;18.784;2023-11-21T12:38:00;5.32;;;4.10;;
55776;SDS011;54079;44.540;18.784;2023-11-21T12:40:30;5.53;;;5.03;;
55776;SDS011;54079;44.540;18.784;2023-11-21T12:42:56;9.07;;;7.28;;
55776;SDS011;54079;44.540;18.784;2023-11-21T12:45:24;4.90;;;4.18;;
55776;SDS011;54079;44.540;18.784;2023-11-21T12:50:34;3.38;;;2.90;;
55776;SDS011;54079;44.540;18.784;2023-11-21T12:53:11;5.90;;;5.15;;
55776;SDS011;54079;44.540;18.784;2023-11-21T12:55:38;4.97;;;3.90;;
55776;SDS011;54079;44.540;18.784;2023-11-21T12:58:05;5.25;;;4.32;;
55776;SDS011;54079;44.540;18.784;2023-11-21T13:00:40;3.90;;;3.50;;
55776;SDS011;54079;44.540;18.784;2023-11-21T13:03:14;4.00;;;3.17;;
55776;SDS011;54079;44.540;18.784;2023-11-21T13:05:43;4.57;;;4.10;;
55776;SDS011;54079;44.540;18.784;2023-11-21T13:08:10;8.93;;;6.85;;
55776;SDS011;54079;44.540;18.784;2023-11-21T13:10:41;5.72;;;5.13;;
55776;SDS011;54079;44.540;18.784;2023-11-21T13:13:12;4.85;;;4.25;;
55776;SDS011;54079;44.540;18.784;2023-11-21T13:16:15;4.80;;;4.20;;
55776;SDS011;54079;44.540;18.784;2023-11-21T13:18:34;5.22;;;4.13;;
55776;SDS011;54079;44.540;18.784;2023-11-21T13:21:02;5.85;;;3.97;;
55776;SDS011;54079;44.540;18.784;2023-11-21T13:23:35;6.07;;;4.32;;
55776;SDS011;54079;44.540;18.784;2023-11-21T13:26:02;5.43;;;4.25;;
55776;SDS011;54079;44.540;18.784;2023-11-21T13:28:29;3.25;;;2.78;;
55776;SDS011;54079;44.540;18.784;2023-11-21T13:30:59;4.22;;;3.30;;
55776;SDS011;54079;44.540;18.784;2023-11-21T13:33:46;3.72;;;3.15;;
55776;SDS011;54079;44.540;18.784;2023-11-21T13:36:20;3.80;;;3.20;;
55776;SDS011;54079;44.540;18.784;2023-11-21T13:38:51;3.65;;;2.88;;
55776;SDS011;54079;44.540;18.784;2023-11-21T13:41:20;4.25;;;3.72;;
55776;SDS011;54079;44.540;18.784;2023-11-21T13:43:53;4.03;;;2.97;;
55776;SDS011;54079;44.540;18.784;2023-11-21T13:46:28;4.72;;;3.35;;
55776;SDS011;54079;44.540;18.784;2023-11-21T13:48:59;3.70;;;3.13;;
55776;SDS011;54079;44.540;18.784;2023-11-21T13:51:25;5.82;;;4.65;;
55776;SDS011;54079;44.540;18.784;2023-11-21T13:54:05;6.30;;;4.93;;
55776;SDS011;54079;44.540;18.784;2023-11-21T13:56:34;5.60;;;4.72;;
55776;SDS011;54079;44.540;18.784;2023-11-21T13:59:01;2.63;;;2.42;;
55776;SDS011;54079;44.540;18.784;2023-11-21T14:01:35;4.45;;;3.35;;
55776;SDS011;54079;44.540;18.784;2023-11-21T14:04:20;4.70;;;3.72;;
55776;SDS011;54079;44.540;18.784;2023-11-21T14:07:00;5.95;;;5.38;;
55776;SDS011;54079;44.540;18.784;2023-11-21T14:09:44;6.45;;;5.45;;
55776;SDS011;54079;44.540;18.784;2023-11-21T14:12:10;4.60;;;4.00;;
55776;SDS011;54079;44.540;18.784;2023-11-21T14:14:38;5.95;;;3.72;;
55776;SDS011;54079;44.540;18.784;2023-11-21T14:17:07;6.68;;;5.93;;
55776;SDS011;54079;44.540;18.784;2023-11-21T14:19:34;10.52;;;8.57;;
55776;SDS011;54079;44.540;18.784;2023-11-21T14:22:04;14.60;;;12.38;;
55776;SDS011;54079;44.540;18.784;2023-11-21T14:24:29;13.93;;;12.40;;
55776;SDS011;54079;44.540;18.784;2023-11-21T14:26:57;14.80;;;11.73;;
55776;SDS011;54079;44.540;18.784;2023-11-21T14:29:23;14.10;;;12.70;;
55776;SDS011;54079;44.540;18.784;2023-11-21T14:31:49;20.35;;;15.13;;
55776;SDS011;54079;44.540;18.784;2023-11-21T14:34:16;17.33;;;14.77;;
55776;SDS011;54079;44.540;18.784;2023-11-21T14:36:43;14.55;;;12.38;;
55776;SDS011;54079;44.540;18.784;2023-11-21T14:39:10;12.50;;;11.20;;
55776;SDS011;54079;44.540;18.784;2023-11-21T14:41:49;14.98;;;11.43;;
55776;SDS011;54079;44.540;18.784;2023-11-21T14:44:15;14.68;;;11.73;;
55776;SDS011;54079;44.540;18.784;2023-11-21T14:46:42;17.25;;;13.20;;
55776;SDS011;54079;44.540;18.784;2023-11-21T14:49:16;17.92;;;15.15;;
55776;SDS011;54079;44.540;18.784;2023-11-21T14:51:46;24.58;;;19.77;;